sensor_id;sensor_type;location;lat;lon;timestamp;pressure;altitude;pressure_sealevel;temperature;humidity
3150;BME280;32503;47.748;8.960;2023-05-23T00:00:58;96683.59;;;19.88;58.50
3150;BME280;32503;47.748;8.960;2023-05-23T00:03:26;96686.75;;;19.87;58.71
3150;BME280;32503;47.748;8.960;2023-05-23T00:05:53;96674.03;;;19.77;59.02
3150;BME280;32503;47.748;8.960;2023-05-23T00:08:21;96679.88;;;19.79;58.98
3150;BME280;32503;47.748;8.960;2023-05-23T00:10:49;96686.19;;;19.76;59.25
3150;BME280;32503;47.748;8.960;2023-05-23T00:13:17;96681.50;;;19.73;59.64
3150;BME280;32503;47.748;8.960;2023-05-23T00:15:44;96687.41;;;19.71;59.78
3150;BME280;32503;47.748;8.960;2023-05-23T00:18:13;96669.84;;;19.68;59.48
3150;BME280;32503;47.748;8.960;2023-05-23T00:20:41;96679.97;;;19.72;59.65
3150;BME280;32503;47.748;8.960;2023-05-23T00:23:09;96681.88;;;19.75;59.78
3150;BME280;32503;47.748;8.960;2023-05-23T00:25:38;96674.97;;;19.66;59.73
3150;BME280;32503;47.748;8.960;2023-05-23T00:28:07;96688.69;;;19.66;59.88
3150;BME280;32503;47.748;8.960;2023-05-23T00:30:34;96694.88;;;19.70;59.77
3150;BME280;32503;47.748;8.960;2023-05-23T00:33:01;96687.13;;;19.65;60.12
3150;BME280;32503;47.748;8.960;2023-05-23T00:35:28;96694.28;;;19.59;60.35
3150;BME280;32503;47.748;8.960;2023-05-23T00:37:55;96684.16;;;19.56;60.26
3150;BME280;32503;47.748;8.960;2023-05-23T00:40:22;96696.28;;;19.55;60.60
3150;BME280;32503;47.748;8.960;2023-05-23T00:42:49;96701.06;;;19.51;60.62
3150;BME280;32503;47.748;8.960;2023-05-23T00:45:18;96701.56;;;19.46;60.66
3150;BME280;32503;47.748;8.960;2023-05-23T00:47:45;96703.09;;;19.47;60.68
3150;BME280;32503;47.748;8.960;2023-05-23T00:50:14;96697.28;;;19.45;60.55
3150;BME280;32503;47.748;8.960;2023-05-23T00:52:44;96687.13;;;19.42;60.37
3150;BME280;32503;47.748;8.960;2023-05-23T00:55:11;96686.72;;;19.43;60.26
3150;BME280;32503;47.748;8.960;2023-05-23T00:57:40;96687.59;;;19.37;60.26
3150;BME280;32503;47.748;8.960;2023-05-23T01:00:10;96697.28;;;19.45;60.42
3150;BME280;32503;47.748;8.960;2023-05-23T01:02:43;96698.50;;;19.40;60.15
3150;BME280;32503;47.748;8.960;2023-05-23T01:05:11;96695.53;;;19.31;60.68
3150;BME280;32503;47.748;8.960;2023-05-23T01:07:39;96701.44;;;19.29;60.76
3150;BME280;32503;47.748;8.960;2023-05-23T01:10:08;96698.81;;;19.22;61.02
3150;BME280;32503;47.748;8.960;2023-05-23T01:12:43;96703.66;;;19.11;61.27
3150;BME280;32503;47.748;8.960;2023-05-23T01:15:14;96694.81;;;19.00;61.39
3150;BME280;32503;47.748;8.960;2023-05-23T01:17:54;96706.56;;;19.00;61.66
3150;BME280;32503;47.748;8.960;2023-05-23T01:20:30;96702.44;;;18.88;62.21
3150;BME280;32503;47.748;8.960;2023-05-23T01:23:42;96706.03;;;18.82;62.60
3150;BME280;32503;47.748;8.960;2023-05-23T01:26:31;96701.81;;;18.73;62.75
3150;BME280;32503;47.748;8.960;2023-05-23T01:29:09;96702.59;;;18.74;62.57
3150;BME280;32503;47.748;8.960;2023-05-23T01:31:43;96703.31;;;18.78;62.95
3150;BME280;32503;47.748;8.960;2023-05-23T01:34:12;96706.03;;;18.82;62.74
3150;BME280;32503;47.748;8.960;2023-05-23T01:36:41;96717.00;;;18.82;62.55
3150;BME280;32503;47.748;8.960;2023-05-23T01:39:08;96704.84;;;18.79;62.29
3150;BME280;32503;47.748;8.960;2023-05-23T01:41:36;96706.06;;;18.78;62.56
3150;BME280;32503;47.748;8.960;2023-05-23T01:44:04;96699.06;;;18.73;62.58
3150;BME280;32503;47.748;8.960;2023-05-23T01:46:32;96704.16;;;18.75;62.58
3150;BME280;32503;47.748;8.960;2023-05-23T01:49:02;96689.41;;;18.65;62.62
3150;BME280;32503;47.748;8.960;2023-05-23T01:51:31;96691.78;;;18.63;62.47
3150;BME280;32503;47.748;8.960;2023-05-23T01:53:59;96711.00;;;18.60;62.81
3150;BME280;32503;47.748;8.960;2023-05-23T01:56:26;96709.09;;;18.56;62.72
3150;BME280;32503;47.748;8.960;2023-05-23T01:58:55;96707.53;;;18.55;62.69
3150;BME280;32503;47.748;8.960;2023-05-23T02:01:23;96711.09;;;18.52;62.86
3150;BME280;32503;47.748;8.960;2023-05-23T02:03:50;96711.63;;;18.40;62.86
3150;BME280;32503;47.748;8.960;2023-05-23T02:06:17;96689.09;;;18.29;63.21
3150;BME280;32503;47.748;8.960;2023-05-23T02:08:44;96702.28;;;18.37;63.17
3150;BME280;32503;47.748;8.960;2023-05-23T02:11:12;96709.28;;;18.38;63.02
3150;BME280;32503;47.748;8.960;2023-05-23T02:13:39;96711.66;;;18.36;62.88
3150;BME280;32503;47.748;8.960;2023-05-23T02:16:06;96713.63;;;18.36;62.89
3150;BME280;32503;47.748;8.960;2023-05-23T02:18:34;96720.38;;;18.28;63.22
3150;BME280;32503;47.748;8.960;2023-05-23T02:21:03;96730.59;;;18.24;63.39
3150;BME280;32503;47.748;8.960;2023-05-23T02:23:30;96715.69;;;18.28;63.06
3150;BME280;32503;47.748;8.960;2023-05-23T02:25:57;96711.50;;;18.16;63.02
3150;BME280;32503;47.748;8.960;2023-05-23T02:28:24;96702.56;;;18.12;63.05
3150;BME280;32503;47.748;8.960;2023-05-23T02:30:51;96718.88;;;18.23;63.14
3150;BME280;32503;47.748;8.960;2023-05-23T02:33:18;96728.28;;;18.18;63.39
3150;BME280;32503;47.748;8.960;2023-05-23T02:35:46;96726.00;;;18.13;63.64
3150;BME280;32503;47.748;8.960;2023-05-23T02:38:16;96720.97;;;18.08;63.82
3150;BME280;32503;47.748;8.960;2023-05-23T02:40:44;96729.97;;;18.05;64.03
3150;BME280;32503;47.748;8.960;2023-05-23T02:43:11;96733.91;;;18.04;64.03
3150;BME280;32503;47.748;8.960;2023-05-23T02:45:38;96730.81;;;18.02;64.04
3150;BME280;32503;47.748;8.960;2023-05-23T02:48:05;96735.13;;;17.99;64.24
3150;BME280;32503;47.748;8.960;2023-05-23T02:50:32;96728.53;;;17.97;64.09
3150;BME280;32503;47.748;8.960;2023-05-23T02:53:00;96727.75;;;17.93;64.26
3150;BME280;32503;47.748;8.960;2023-05-23T02:55:27;96726.25;;;17.88;64.45
3150;BME280;32503;47.748;8.960;2023-05-23T02:57:56;96737.59;;;17.83;64.78
3150;BME280;32503;47.748;8.960;2023-05-23T03:00:24;96740.75;;;17.81;64.87
3150;BME280;32503;47.748;8.960;2023-05-23T03:02:51;96742.31;;;17.83;64.92
3150;BME280;32503;47.748;8.960;2023-05-23T03:05:18;96737.25;;;17.81;64.77
3150;BME280;32503;47.748;8.960;2023-05-23T03:07:45;96736.88;;;17.79;64.96
3150;BME280;32503;47.748;8.960;2023-05-23T03:10:14;96740.41;;;17.76;64.80
3150;BME280;32503;47.748;8.960;2023-05-23T03:12:41;96742.72;;;17.81;65.03
3150;BME280;32503;47.748;8.960;2023-05-23T03:15:09;96739.59;;;17.79;65.66
3150;BME280;32503;47.748;8.960;2023-05-23T03:17:36;96745.53;;;17.70;65.76
3150;BME280;32503;47.748;8.960;2023-05-23T03:20:04;96747.50;;;17.66;66.38
3150;BME280;32503;47.748;8.960;2023-05-23T03:22:34;96751.44;;;17.65;65.82
3150;BME280;32503;47.748;8.960;2023-05-23T03:25:01;96747.94;;;17.61;65.89
3150;BME280;32503;47.748;8.960;2023-05-23T03:27:30;96742.06;;;17.62;65.85
3150;BME280;32503;47.748;8.960;2023-05-23T03:29:57;96751.88;;;17.60;65.76
3150;BME280;32503;47.748;8.960;2023-05-23T03:32:24;96753.41;;;17.61;65.80
3150;BME280;32503;47.748;8.960;2023-05-23T03:34:51;96752.25;;;17.62;65.62
3150;BME280;32503;47.748;8.960;2023-05-23T03:37:18;96763.94;;;17.62;66.03
3150;BME280;32503;47.748;8.960;2023-05-23T03:39:46;96763.13;;;17.66;65.87
3150;BME280;32503;47.748;8.960;2023-05-23T03:42:12;96753.78;;;17.67;65.70
3150;BME280;32503;47.748;8.960;2023-05-23T03:44:41;96761.91;;;17.74;65.81
3150;BME280;32503;47.748;8.960;2023-05-23T03:47:08;96763.41;;;17.78;65.59
3150;BME280;32503;47.748;8.960;2023-05-23T03:49:35;96760.72;;;17.75;66.03
3150;BME280;32503;47.748;8.960;2023-05-23T03:52:02;96764.63;;;17.77;66.20
3150;BME280;32503;47.748;8.960;2023-05-23T03:54:29;96771.97;;;17.80;66.22
3150;BME280;32503;47.748;8.960;2023-05-23T03:56:57;96762.22;;;17.87;65.86
3150;BME280;32503;47.748;8.960;2023-05-23T03:59:24;96775.44;;;17.92;65.85
3150;BME280;32503;47.748;8.960;2023-05-23T04:01:52;96773.16;;;17.87;65.95
3150;BME280;32503;47.748;8.960;2023-05-23T04:04:19;96775.16;;;17.79;66.11
3150;BME280;32503;47.748;8.960;2023-05-23T04:06:46;96772.38;;;17.83;65.88
3150;BME280;32503;47.748;8.960;2023-05-23T04:09:13;96780.16;;;17.84;65.94
3150;BME280;32503;47.748;8.960;2023-05-23T04:11:40;96778.63;;;17.87;65.99
3150;BME280;32503;47.748;8.960;2023-05-23T04:14:08;96770.78;;;17.85;65.88
3150;BME280;32503;47.748;8.960;2023-05-23T04:16:36;96780.16;;;17.91;66.03
3150;BME280;32503;47.748;8.960;2023-05-23T04:19:07;96775.81;;;17.94;65.75
3150;BME280;32503;47.748;8.960;2023-05-23T04:21:34;96782.00;;;18.02;65.69
3150;BME280;32503;47.748;8.960;2023-05-23T04:24:02;96781.94;;;18.05;65.79
3150;BME280;32503;47.748;8.960;2023-05-23T04:26:29;96775.25;;;18.13;65.57
3150;BME280;32503;47.748;8.960;2023-05-23T04:28:56;96775.59;;;18.15;65.35
3150;BME280;32503;47.748;8.960;2023-05-23T04:31:23;96779.94;;;18.13;65.51
3150;BME280;32503;47.748;8.960;2023-05-23T04:33:51;96787.31;;;18.19;65.55
3150;BME280;32503;47.748;8.960;2023-05-23T04:36:19;96790.41;;;18.22;65.37
3150;BME280;32503;47.748;8.960;2023-05-23T04:38:48;96782.56;;;18.24;65.24
3150;BME280;32503;47.748;8.960;2023-05-23T04:41:15;96790.38;;;18.25;65.43
3150;BME280;32503;47.748;8.960;2023-05-23T04:43:42;96796.22;;;18.27;65.29
3150;BME280;32503;47.748;8.960;2023-05-23T04:46:10;96796.25;;;18.24;65.36
3150;BME280;32503;47.748;8.960;2023-05-23T04:48:38;96797.81;;;18.21;65.41
3150;BME280;32503;47.748;8.960;2023-05-23T04:51:07;96805.63;;;18.23;65.60
3150;BME280;32503;47.748;8.960;2023-05-23T04:53:35;96800.09;;;18.30;65.34
3150;BME280;32503;47.748;8.960;2023-05-23T04:56:03;96800.09;;;18.30;65.88
3150;BME280;32503;47.748;8.960;2023-05-23T04:58:30;96796.63;;;18.26;66.12
3150;BME280;32503;47.748;8.960;2023-05-23T05:00:58;96797.81;;;18.21;66.30
3150;BME280;32503;47.748;8.960;2023-05-23T05:03:25;96802.41;;;18.31;65.95
3150;BME280;32503;47.748;8.960;2023-05-23T05:05:52;96800.00;;;18.41;66.04
3150;BME280;32503;47.748;8.960;2023-05-23T05:08:19;96800.69;;;18.48;65.50
3150;BME280;32503;47.748;8.960;2023-05-23T05:10:47;96800.94;;;18.61;65.51
3150;BME280;32503;47.748;8.960;2023-05-23T05:13:14;96799.56;;;18.76;65.08
3150;BME280;32503;47.748;8.960;2023-05-23T05:15:41;96802.63;;;18.86;64.99
3150;BME280;32503;47.748;8.960;2023-05-23T05:18:08;96811.09;;;18.95;64.94
3150;BME280;32503;47.748;8.960;2023-05-23T05:20:36;96812.97;;;19.02;64.84
3150;BME280;32503;47.748;8.960;2023-05-23T05:23:03;96812.16;;;19.05;64.76
3150;BME280;32503;47.748;8.960;2023-05-23T05:25:31;96818.00;;;19.07;64.87
3150;BME280;32503;47.748;8.960;2023-05-23T05:28:02;96821.91;;;19.06;65.04
3150;BME280;32503;47.748;8.960;2023-05-23T05:30:31;96819.63;;;19.04;65.07
3150;BME280;32503;47.748;8.960;2023-05-23T05:32:59;96824.31;;;19.04;65.13
3150;BME280;32503;47.748;8.960;2023-05-23T05:35:29;96827.41;;;19.06;65.15
3150;BME280;32503;47.748;8.960;2023-05-23T05:37:56;96833.63;;;19.10;64.96
3150;BME280;32503;47.748;8.960;2023-05-23T05:40:24;96830.44;;;19.15;65.02
3150;BME280;32503;47.748;8.960;2023-05-23T05:42:51;96828.81;;;19.18;65.03
3150;BME280;32503;47.748;8.960;2023-05-23T05:45:19;96830.38;;;19.19;65.02
3150;BME280;32503;47.748;8.960;2023-05-23T05:47:46;96828.78;;;19.21;65.21
3150;BME280;32503;47.748;8.960;2023-05-23T05:50:13;96827.25;;;19.20;65.56
3150;BME280;32503;47.748;8.960;2023-05-23T05:52:41;96832.97;;;19.29;65.51
3150;BME280;32503;47.748;8.960;2023-05-23T05:55:09;96827.75;;;19.39;65.29
3150;BME280;32503;47.748;8.960;2023-05-23T05:57:37;96829.56;;;19.49;65.07
3150;BME280;32503;47.748;8.960;2023-05-23T06:00:07;96822.38;;;19.59;64.99
3150;BME280;32503;47.748;8.960;2023-05-23T06:02:41;96815.66;;;19.63;64.79
3150;BME280;32503;47.748;8.960;2023-05-23T06:05:09;96814.31;;;19.75;64.69
3150;BME280;32503;47.748;8.960;2023-05-23T06:07:37;96825.47;;;19.88;64.22
3150;BME280;32503;47.748;8.960;2023-05-23T06:10:06;96834.81;;;19.91;64.26
3150;BME280;32503;47.748;8.960;2023-05-23T06:12:34;96832.75;;;19.98;64.15
3150;BME280;32503;47.748;8.960;2023-05-23T06:15:01;96836.22;;;20.02;64.00
3150;BME280;32503;47.748;8.960;2023-05-23T06:17:28;96843.97;;;20.07;64.15
3150;BME280;32503;47.748;8.960;2023-05-23T06:19:56;96840.03;;;20.08;64.38
3150;BME280;32503;47.748;8.960;2023-05-23T06:22:23;96840.16;;;20.01;64.76
3150;BME280;32503;47.748;8.960;2023-05-23T06:24:50;96839.38;;;20.01;64.85
3150;BME280;32503;47.748;8.960;2023-05-23T06:27:17;96831.50;;;20.03;64.82
3150;BME280;32503;47.748;8.960;2023-05-23T06:29:45;96836.09;;;20.10;64.52
3150;BME280;32503;47.748;8.960;2023-05-23T06:32:11;96818.16;;;20.05;64.25
3150;BME280;32503;47.748;8.960;2023-05-23T06:34:38;96833.47;;;20.26;64.01
3150;BME280;32503;47.748;8.960;2023-05-23T06:37:07;96844.19;;;20.40;63.78
3150;BME280;32503;47.748;8.960;2023-05-23T06:39:34;96835.84;;;20.48;63.56
3150;BME280;32503;47.748;8.960;2023-05-23T06:42:01;96840.34;;;20.58;63.13
3150;BME280;32503;47.748;8.960;2023-05-23T06:44:29;96842.13;;;20.68;62.97
3150;BME280;32503;47.748;8.960;2023-05-23T06:46:56;96832.50;;;20.80;62.51
3150;BME280;32503;47.748;8.960;2023-05-23T06:49:23;96835.59;;;20.82;62.19
3150;BME280;32503;47.748;8.960;2023-05-23T06:51:51;96843.63;;;20.93;62.09
3150;BME280;32503;47.748;8.960;2023-05-23T06:54:19;96846.28;;;20.96;62.07
3150;BME280;32503;47.748;8.960;2023-05-23T06:56:46;96844.53;;;21.06;61.84
3150;BME280;32503;47.748;8.960;2023-05-23T06:59:13;96846.63;;;21.18;61.66
3150;BME280;32503;47.748;8.960;2023-05-23T07:01:40;96854.81;;;21.22;61.45
3150;BME280;32503;47.748;8.960;2023-05-23T07:04:07;96849.72;;;21.20;61.41
3150;BME280;32503;47.748;8.960;2023-05-23T07:06:34;96852.13;;;21.18;61.70
3150;BME280;32503;47.748;8.960;2023-05-23T07:09:02;96856.44;;;21.19;61.65
3150;BME280;32503;47.748;8.960;2023-05-23T07:11:31;96835.59;;;21.02;61.66
3150;BME280;32503;47.748;8.960;2023-05-23T07:13:58;96854.38;;;21.24;61.29
3150;BME280;32503;47.748;8.960;2023-05-23T07:16:25;96857.56;;;21.22;61.43
3150;BME280;32503;47.748;8.960;2023-05-23T07:18:52;96855.16;;;21.24;61.46
3150;BME280;32503;47.748;8.960;2023-05-23T07:21:19;96849.50;;;21.31;61.40
3150;BME280;32503;47.748;8.960;2023-05-23T07:23:46;96846.50;;;21.42;61.73
3150;BME280;32503;47.748;8.960;2023-05-23T07:26:13;96848.84;;;21.64;61.31
3150;BME280;32503;47.748;8.960;2023-05-23T07:28:42;96845.06;;;21.90;60.76
3150;BME280;32503;47.748;8.960;2023-05-23T07:31:09;96842.78;;;22.18;59.89
3150;BME280;32503;47.748;8.960;2023-05-23T07:33:36;96847.63;;;22.47;59.12
3150;BME280;32503;47.748;8.960;2023-05-23T07:36:03;96849.13;;;22.64;58.09
3150;BME280;32503;47.748;8.960;2023-05-23T07:38:30;96849.84;;;22.81;56.94
3150;BME280;32503;47.748;8.960;2023-05-23T07:40:57;96850.56;;;22.69;56.22
3150;BME280;32503;47.748;8.960;2023-05-23T07:43:24;96858.06;;;22.68;56.32
3150;BME280;32503;47.748;8.960;2023-05-23T07:45:53;96857.66;;;22.83;56.25
3150;BME280;32503;47.748;8.960;2023-05-23T07:48:20;96856.28;;;22.91;56.04
3150;BME280;32503;47.748;8.960;2023-05-23T07:50:47;96850.72;;;23.07;56.02
3150;BME280;32503;47.748;8.960;2023-05-23T07:53:14;96846.41;;;23.06;54.83
3150;BME280;32503;47.748;8.960;2023-05-23T07:55:41;96840.34;;;23.12;54.84
3150;BME280;32503;47.748;8.960;2023-05-23T07:58:08;96835.19;;;23.26;54.43
3150;BME280;32503;47.748;8.960;2023-05-23T08:00:35;96840.38;;;23.63;53.77
3150;BME280;32503;47.748;8.960;2023-05-23T08:03:04;96838.53;;;23.73;52.93
3150;BME280;32503;47.748;8.960;2023-05-23T08:05:31;96843.81;;;23.80;52.81
3150;BME280;32503;47.748;8.960;2023-05-23T08:07:58;96847.47;;;24.02;52.48
3150;BME280;32503;47.748;8.960;2023-05-23T08:10:26;96847.13;;;24.48;51.65
3150;BME280;32503;47.748;8.960;2023-05-23T08:12:54;96844.69;;;24.85;51.37
3150;BME280;32503;47.748;8.960;2023-05-23T08:15:21;96847.13;;;25.05;49.82
3150;BME280;32503;47.748;8.960;2023-05-23T08:17:48;96846.13;;;25.21;48.79
3150;BME280;32503;47.748;8.960;2023-05-23T08:20:17;96845.13;;;25.28;48.27
3150;BME280;32503;47.748;8.960;2023-05-23T08:22:44;96849.50;;;25.38;47.23
3150;BME280;32503;47.748;8.960;2023-05-23T08:25:11;96846.59;;;25.42;47.32
3150;BME280;32503;47.748;8.960;2023-05-23T08:27:38;96847.13;;;25.27;47.39
3150;BME280;32503;47.748;8.960;2023-05-23T08:30:07;96856.84;;;25.10;47.78
3150;BME280;32503;47.748;8.960;2023-05-23T08:32:34;96846.81;;;25.03;49.08
3150;BME280;32503;47.748;8.960;2023-05-23T08:35:01;96852.91;;;24.98;49.01
3150;BME280;32503;47.748;8.960;2023-05-23T08:37:30;96846.88;;;24.90;49.14
3150;BME280;32503;47.748;8.960;2023-05-23T08:39:57;96842.31;;;24.96;48.94
3150;BME280;32503;47.748;8.960;2023-05-23T08:42:25;96854.66;;;25.05;49.49
3150;BME280;32503;47.748;8.960;2023-05-23T08:44:52;96855.94;;;24.91;48.77
3150;BME280;32503;47.748;8.960;2023-05-23T08:47:19;96854.78;;;24.79;48.96
3150;BME280;32503;47.748;8.960;2023-05-23T08:49:47;96849.50;;;24.72;49.27
3150;BME280;32503;47.748;8.960;2023-05-23T08:52:15;96853.00;;;24.85;49.26
3150;BME280;32503;47.748;8.960;2023-05-23T08:54:45;96856.31;;;25.02;49.60
3150;BME280;32503;47.748;8.960;2023-05-23T08:57:12;96863.00;;;25.14;49.34
3150;BME280;32503;47.748;8.960;2023-05-23T08:59:40;96860.88;;;25.18;48.88
3150;BME280;32503;47.748;8.960;2023-05-23T09:02:10;96862.63;;;25.25;47.81
3150;BME280;32503;47.748;8.960;2023-05-23T09:04:37;96851.13;;;25.26;47.98
3150;BME280;32503;47.748;8.960;2023-05-23T09:07:05;96857.69;;;25.51;47.72
3150;BME280;32503;47.748;8.960;2023-05-23T09:09:33;96852.09;;;25.73;47.16
3150;BME280;32503;47.748;8.960;2023-05-23T09:12:01;96866.00;;;25.91;47.17
3150;BME280;32503;47.748;8.960;2023-05-23T09:14:28;96864.56;;;26.09;46.59
3150;BME280;32503;47.748;8.960;2023-05-23T09:17:00;96860.44;;;26.23;46.02
3150;BME280;32503;47.748;8.960;2023-05-23T09:19:28;96861.03;;;26.36;45.47
3150;BME280;32503;47.748;8.960;2023-05-23T09:21:55;96857.97;;;26.43;45.33
3150;BME280;32503;47.748;8.960;2023-05-23T09:24:22;96865.06;;;26.44;45.14
3150;BME280;32503;47.748;8.960;2023-05-23T09:26:49;96859.38;;;26.29;45.29
3150;BME280;32503;47.748;8.960;2023-05-23T09:29:20;96861.34;;;26.29;45.27
3150;BME280;32503;47.748;8.960;2023-05-23T09:31:47;96863.03;;;26.17;45.74
3150;BME280;32503;47.748;8.960;2023-05-23T09:34:14;96861.31;;;26.10;45.63
3150;BME280;32503;47.748;8.960;2023-05-23T09:36:41;96857.00;;;26.09;45.71
3150;BME280;32503;47.748;8.960;2023-05-23T09:39:11;96859.50;;;25.85;45.28
3150;BME280;32503;47.748;8.960;2023-05-23T09:41:38;96850.97;;;25.61;45.95
3150;BME280;32503;47.748;8.960;2023-05-23T09:44:07;96851.59;;;25.65;46.70
3150;BME280;32503;47.748;8.960;2023-05-23T09:46:36;96854.47;;;25.84;47.22
3150;BME280;32503;47.748;8.960;2023-05-23T09:49:15;96849.00;;;26.11;46.25
3150;BME280;32503;47.748;8.960;2023-05-23T09:51:43;96846.56;;;26.32;45.77
3150;BME280;32503;47.748;8.960;2023-05-23T09:54:22;96852.75;;;26.45;45.34
3150;BME280;32503;47.748;8.960;2023-05-23T09:56:52;96849.69;;;26.53;45.17
3150;BME280;32503;47.748;8.960;2023-05-23T09:59:21;96852.47;;;26.62;44.43
3150;BME280;32503;47.748;8.960;2023-05-23T10:01:54;96853.41;;;26.77;44.21
3150;BME280;32503;47.748;8.960;2023-05-23T10:04:22;96843.50;;;26.95;44.26
3150;BME280;32503;47.748;8.960;2023-05-23T10:06:56;96833.31;;;27.10;43.54
3150;BME280;32503;47.748;8.960;2023-05-23T10:09:26;96838.03;;;27.47;42.68
3150;BME280;32503;47.748;8.960;2023-05-23T10:12:42;96836.25;;;27.68;41.87
3150;BME280;32503;47.748;8.960;2023-05-23T10:15:14;96827.00;;;27.71;41.45
3150;BME280;32503;47.748;8.960;2023-05-23T10:18:02;96823.81;;;27.54;40.74
3150;BME280;32503;47.748;8.960;2023-05-23T10:20:33;96823.75;;;27.30;41.81
3150;BME280;32503;47.748;8.960;2023-05-23T10:23:02;96818.31;;;27.26;41.71
3150;BME280;32503;47.748;8.960;2023-05-23T10:25:30;96816.88;;;27.49;41.62
3150;BME280;32503;47.748;8.960;2023-05-23T10:27:59;96816.19;;;27.64;41.35
3150;BME280;32503;47.748;8.960;2023-05-23T10:30:27;96813.75;;;27.99;41.25
3150;BME280;32503;47.748;8.960;2023-05-23T10:32:56;96806.81;;;27.94;40.55
3150;BME280;32503;47.748;8.960;2023-05-23T10:35:36;96812.97;;;27.98;41.10
3150;BME280;32503;47.748;8.960;2023-05-23T10:38:16;96812.00;;;27.26;41.22
3150;BME280;32503;47.748;8.960;2023-05-23T10:40:54;96810.47;;;27.34;41.63
3150;BME280;32503;47.748;8.960;2023-05-23T10:43:28;96810.53;;;26.88;42.97
3150;BME280;32503;47.748;8.960;2023-05-23T10:45:56;96817.75;;;27.03;43.27
3150;BME280;32503;47.748;8.960;2023-05-23T10:48:33;96816.28;;;26.75;42.84
3150;BME280;32503;47.748;8.960;2023-05-23T10:51:02;96812.88;;;26.80;43.57
3150;BME280;32503;47.748;8.960;2023-05-23T10:53:31;96804.56;;;26.71;43.06
3150;BME280;32503;47.748;8.960;2023-05-23T10:56:00;96798.50;;;27.00;43.21
3150;BME280;32503;47.748;8.960;2023-05-23T10:58:29;96820.03;;;27.33;42.47
3150;BME280;32503;47.748;8.960;2023-05-23T11:01:00;96810.34;;;27.71;42.22
3150;BME280;32503;47.748;8.960;2023-05-23T11:03:34;96798.50;;;27.94;41.58
3150;BME280;32503;47.748;8.960;2023-05-23T11:06:02;96795.19;;;28.05;38.92
3150;BME280;32503;47.748;8.960;2023-05-23T11:08:37;96802.25;;;27.82;38.38
3150;BME280;32503;47.748;8.960;2023-05-23T11:11:04;96814.09;;;27.58;38.40
3150;BME280;32503;47.748;8.960;2023-05-23T11:13:56;96816.03;;;27.34;39.04
3150;BME280;32503;47.748;8.960;2023-05-23T11:16:30;96816.97;;;27.21;38.91
3150;BME280;32503;47.748;8.960;2023-05-23T11:19:24;96820.84;;;26.96;39.81
3150;BME280;32503;47.748;8.960;2023-05-23T11:21:57;96828.44;;;26.68;42.23
3150;BME280;32503;47.748;8.960;2023-05-23T11:24:47;96842.09;;;26.25;47.26
3150;BME280;32503;47.748;8.960;2023-05-23T11:27:15;96844.81;;;25.98;49.05
3150;BME280;32503;47.748;8.960;2023-05-23T11:29:55;96843.59;;;25.67;50.73
3150;BME280;32503;47.748;8.960;2023-05-23T11:32:23;96845.31;;;25.33;50.73
3150;BME280;32503;47.748;8.960;2023-05-23T11:34:51;96845.78;;;25.10;50.84
3150;BME280;32503;47.748;8.960;2023-05-23T11:37:19;96843.78;;;24.88;51.04
3150;BME280;32503;47.748;8.960;2023-05-23T11:39:48;96840.81;;;24.83;51.91
3150;BME280;32503;47.748;8.960;2023-05-23T11:42:15;96842.81;;;24.82;53.23
3150;BME280;32503;47.748;8.960;2023-05-23T11:44:42;96843.59;;;24.60;54.54
3150;BME280;32503;47.748;8.960;2023-05-23T11:47:09;96825.09;;;24.22;57.19
3150;BME280;32503;47.748;8.960;2023-05-23T11:49:39;96830.59;;;24.00;56.95
3150;BME280;32503;47.748;8.960;2023-05-23T11:52:07;96827.25;;;23.93;56.54
3150;BME280;32503;47.748;8.960;2023-05-23T11:54:34;96818.75;;;24.00;55.37
3150;BME280;32503;47.748;8.960;2023-05-23T11:57:02;96821.19;;;23.98;55.41
3150;BME280;32503;47.748;8.960;2023-05-23T11:59:29;96816.78;;;24.00;55.04
3150;BME280;32503;47.748;8.960;2023-05-23T12:01:56;96824.69;;;24.11;55.25
3150;BME280;32503;47.748;8.960;2023-05-23T12:04:24;96821.38;;;24.16;54.82
3150;BME280;32503;47.748;8.960;2023-05-23T12:06:52;96810.22;;;24.07;52.86
3150;BME280;32503;47.748;8.960;2023-05-23T12:09:20;96825.06;;;24.00;51.87
3150;BME280;32503;47.748;8.960;2023-05-23T12:11:48;96820.00;;;23.86;52.61
3150;BME280;32503;47.748;8.960;2023-05-23T12:14:16;96811.03;;;23.69;53.19
3150;BME280;32503;47.748;8.960;2023-05-23T12:16:45;96801.44;;;23.74;55.41
3150;BME280;32503;47.748;8.960;2023-05-23T12:19:12;96809.25;;;23.75;57.22
3150;BME280;32503;47.748;8.960;2023-05-23T12:21:43;96806.59;;;23.72;58.88
3150;BME280;32503;47.748;8.960;2023-05-23T12:24:14;96803.31;;;23.64;59.96
3150;BME280;32503;47.748;8.960;2023-05-23T12:26:51;96795.50;;;23.50;60.42
3150;BME280;32503;47.748;8.960;2023-05-23T12:29:19;96780.25;;;23.32;60.48
3150;BME280;32503;47.748;8.960;2023-05-23T12:31:50;96821.09;;;23.37;61.02
3150;BME280;32503;47.748;8.960;2023-05-23T12:34:19;96828.03;;;23.29;61.37
3150;BME280;32503;47.748;8.960;2023-05-23T12:36:47;96828.91;;;23.26;61.25
3150;BME280;32503;47.748;8.960;2023-05-23T12:39:15;96834.88;;;23.24;59.94
3150;BME280;32503;47.748;8.960;2023-05-23T12:41:44;96842.56;;;23.17;59.77
3150;BME280;32503;47.748;8.960;2023-05-23T12:44:14;96842.66;;;23.13;59.23
3150;BME280;32503;47.748;8.960;2023-05-23T12:46:42;96851.00;;;22.97;59.55
3150;BME280;32503;47.748;8.960;2023-05-23T12:49:10;96862.31;;;22.86;59.51
3150;BME280;32503;47.748;8.960;2023-05-23T12:51:37;96874.41;;;22.76;60.47
3150;BME280;32503;47.748;8.960;2023-05-23T12:54:04;96866.66;;;22.70;60.45
3150;BME280;32503;47.748;8.960;2023-05-23T12:56:31;96862.22;;;22.60;60.95
3150;BME280;32503;47.748;8.960;2023-05-23T12:58:58;96864.91;;;22.47;60.68
3150;BME280;32503;47.748;8.960;2023-05-23T13:01:28;96848.66;;;22.37;61.08
3150;BME280;32503;47.748;8.960;2023-05-23T13:03:55;96853.59;;;22.29;61.59
3150;BME280;32503;47.748;8.960;2023-05-23T13:06:22;96845.75;;;22.27;61.85
3150;BME280;32503;47.748;8.960;2023-05-23T13:08:49;96840.50;;;22.33;62.23
3150;BME280;32503;47.748;8.960;2023-05-23T13:11:16;96843.50;;;22.39;62.15
3150;BME280;32503;47.748;8.960;2023-05-23T13:13:44;96842.31;;;22.40;61.93
3150;BME280;32503;47.748;8.960;2023-05-23T13:16:12;96840.50;;;22.33;62.02
3150;BME280;32503;47.748;8.960;2023-05-23T13:18:40;96837.56;;;22.24;62.29